createdAt,value
2022-12-23T00:01:47.199Z,2.90
2022-12-23T00:04:15.868Z,3.25
2022-12-23T00:06:45.494Z,4.55
2022-12-23T00:09:11.978Z,2.33
2022-12-23T00:11:38.615Z,2.50
2022-12-23T00:14:05.246Z,1.83
2022-12-23T00:16:31.837Z,2.30
2022-12-23T00:18:58.527Z,2.88
2022-12-23T00:21:25.017Z,2.33
2022-12-23T00:23:51.745Z,2.95
2022-12-23T00:26:21.977Z,2.47
2022-12-23T00:28:48.658Z,2.67
2022-12-23T00:31:16.141Z,2.90
2022-12-23T00:33:44.630Z,2.78
2022-12-23T00:36:39.552Z,2.78
2022-12-23T00:39:06.231Z,3.47
2022-12-23T00:41:32.730Z,2.60
2022-12-23T00:44:00.711Z,2.28
2022-12-23T00:46:27.738Z,3.10
2022-12-23T00:48:54.227Z,2.60
2022-12-23T00:51:20.707Z,3.17
2022-12-23T00:53:47.179Z,1.92
2022-12-23T00:56:13.665Z,2.80
2022-12-23T00:58:40.127Z,2.63
2022-12-23T01:01:06.760Z,1.75
2022-12-23T01:03:33.341Z,2.00
2022-12-23T01:06:00.987Z,1.90
2022-12-23T01:08:27.590Z,1.42
2022-12-23T01:10:54.145Z,1.90
2022-12-23T01:13:21.078Z,1.60
2022-12-23T01:15:47.648Z,2.03
2022-12-23T01:18:14.248Z,2.28
2022-12-23T01:20:42.921Z,1.80
2022-12-23T01:23:09.445Z,2.03
2022-12-23T01:25:36.148Z,2.10
2022-12-23T01:28:02.650Z,2.15
2022-12-23T01:30:29.126Z,2.17
2022-12-23T01:32:55.616Z,4.70
2022-12-23T01:35:22.134Z,2.15
2022-12-23T01:37:48.627Z,2.28
2022-12-23T01:40:15.110Z,2.47
2022-12-23T01:42:41.733Z,3.42
2022-12-23T01:45:22.002Z,3.08
2022-12-23T01:50:41.190Z,1.95
2022-12-23T01:53:11.562Z,3.47
2022-12-23T01:58:30.775Z,2.00
2022-12-23T02:00:58.104Z,1.98
2022-12-23T02:03:24.734Z,2.13
2022-12-23T02:05:51.633Z,2.70
2022-12-23T02:08:18.594Z,2.50
2022-12-23T02:11:00.206Z,1.88
2022-12-23T02:13:37.013Z,2.38
2022-12-23T02:16:10.937Z,2.05
2022-12-23T02:19:01.768Z,3.10
2022-12-23T02:21:31.263Z,4.00
2022-12-23T02:24:47.369Z,2.78
2022-12-23T02:27:19.856Z,2.63
2022-12-23T02:29:49.340Z,2.55
2022-12-23T02:32:34.782Z,3.85
2022-12-23T02:35:25.977Z,2.22
2022-12-23T02:38:08.861Z,2.10
2022-12-23T02:40:56.010Z,3.00
2022-12-23T02:43:32.609Z,2.70
2022-12-23T02:46:09.397Z,3.05
2022-12-23T02:49:08.645Z,3.03
2022-12-23T02:51:39.144Z,4.65
2022-12-23T02:54:08.588Z,2.35
2022-12-23T02:56:37.262Z,2.78
2022-12-23T02:59:12.084Z,2.55
2022-12-23T03:01:39.059Z,2.90
2022-12-23T03:04:06.846Z,2.17
2022-12-23T03:06:37.257Z,1.90
2022-12-23T03:09:03.900Z,2.80
2022-12-23T03:12:01.708Z,2.63
2022-12-23T03:14:40.274Z,2.60
2022-12-23T03:17:16.325Z,2.78
2022-12-23T03:19:54.371Z,2.78
2022-12-23T03:22:27.276Z,1.83
2022-12-23T03:25:17.572Z,2.25
2022-12-23T03:30:20.662Z,2.83
2022-12-23T03:32:52.515Z,2.92
2022-12-23T03:35:23.474Z,2.08
2022-12-23T03:37:52.850Z,2.40
2022-12-23T03:40:28.815Z,2.10
2022-12-23T03:43:04.392Z,2.38
2022-12-23T03:45:39.412Z,3.55
2022-12-23T03:48:19.939Z,2.60
2022-12-23T03:50:48.414Z,2.92
2022-12-23T03:53:20.153Z,2.45
2022-12-23T03:55:56.712Z,1.58
2022-12-23T03:58:43.675Z,2.47
2022-12-23T04:01:10.316Z,2.30
2022-12-23T04:03:43.130Z,2.67
2022-12-23T04:06:11.575Z,1.50
2022-12-23T04:08:38.820Z,2.00
2022-12-23T04:11:05.982Z,2.08
2022-12-23T04:13:53.957Z,1.80
2022-12-23T04:16:25.837Z,1.48
2022-12-23T04:18:53.337Z,1.50
2022-12-23T04:21:26.090Z,2.15
2022-12-23T04:23:52.567Z,1.42
2022-12-23T04:26:19.181Z,1.80
2022-12-23T04:28:45.644Z,1.15
2022-12-23T04:31:12.213Z,0.90
2022-12-23T04:33:38.777Z,0.90
2022-12-23T04:36:05.663Z,1.00
2022-12-23T04:38:32.273Z,1.10
2022-12-23T04:40:58.732Z,1.30
2022-12-23T04:43:25.327Z,1.25
2022-12-23T04:45:51.848Z,1.30
2022-12-23T04:48:18.915Z,0.98
2022-12-23T04:50:45.448Z,1.50
2022-12-23T04:53:11.913Z,1.35
2022-12-23T04:55:38.451Z,2.40
2022-12-23T04:58:04.945Z,1.77
2022-12-23T05:00:37.179Z,1.52
2022-12-23T05:03:05.934Z,1.70
2022-12-23T05:05:32.527Z,1.38
2022-12-23T05:08:04.167Z,1.20
2022-12-23T05:10:30.965Z,1.10
2022-12-23T05:12:58.500Z,0.88
2022-12-23T05:15:25.064Z,1.23
2022-12-23T05:17:51.580Z,0.90
2022-12-23T05:20:18.059Z,1.27
2022-12-23T05:22:44.593Z,1.58
2022-12-23T05:25:11.045Z,1.30
2022-12-23T05:27:37.581Z,1.67
2022-12-23T05:30:04.507Z,1.42
2022-12-23T05:32:30.964Z,1.08
2022-12-23T05:34:57.434Z,1.35
2022-12-23T05:37:23.948Z,2.00
2022-12-23T05:39:50.628Z,1.60
2022-12-23T05:42:17.097Z,2.05
2022-12-23T05:44:43.581Z,1.38
2022-12-23T05:47:10.087Z,2.05
2022-12-23T05:49:36.638Z,1.85
2022-12-23T05:52:03.121Z,1.73
2022-12-23T05:54:29.714Z,1.33
2022-12-23T05:56:56.244Z,2.65
2022-12-23T05:59:26.433Z,1.60
2022-12-23T06:01:55.903Z,2.78
2022-12-23T06:04:22.561Z,3.72
2022-12-23T06:06:49.060Z,2.10
2022-12-23T06:09:15.574Z,2.70
2022-12-23T06:11:42.082Z,2.30
2022-12-23T06:14:08.619Z,1.80
2022-12-23T06:16:35.208Z,2.05
2022-12-23T06:19:02.589Z,1.63
2022-12-23T06:21:29.078Z,1.00
2022-12-23T06:23:55.567Z,1.35
2022-12-23T06:26:22.350Z,1.65
2022-12-23T06:28:48.861Z,1.75
2022-12-23T06:31:15.460Z,1.30
2022-12-23T06:33:42.140Z,1.00
2022-12-23T06:36:08.937Z,1.10
2022-12-23T06:38:35.428Z,0.90
2022-12-23T06:41:01.921Z,1.30
2022-12-23T06:43:28.414Z,1.00
2022-12-23T06:45:54.877Z,1.10
2022-12-23T06:48:21.425Z,2.00
2022-12-23T06:50:47.885Z,11.45
2022-12-23T06:53:14.376Z,5.68
2022-12-23T06:55:40.845Z,2.33
2022-12-23T06:58:07.510Z,3.00
2022-12-23T07:00:34.066Z,2.60
2022-12-23T07:03:00.826Z,3.08
2022-12-23T07:05:31.903Z,2.90
2022-12-23T07:08:03.184Z,2.40
2022-12-23T07:10:29.860Z,3.33
2022-12-23T07:12:56.486Z,2.65
2022-12-23T07:15:22.963Z,2.42
2022-12-23T07:17:49.536Z,1.75
2022-12-23T07:20:16.038Z,1.70
2022-12-23T07:22:42.629Z,1.23
2022-12-23T07:25:09.376Z,1.40
2022-12-23T07:27:35.869Z,1.30
2022-12-23T07:30:02.469Z,1.23
2022-12-23T07:32:29.195Z,1.10
2022-12-23T07:34:55.694Z,1.15
2022-12-23T07:37:22.160Z,0.90
2022-12-23T07:39:48.637Z,2.03
2022-12-23T07:45:01.706Z,1.60
2022-12-23T07:47:28.547Z,1.48
2022-12-23T07:49:54.991Z,0.98
2022-12-23T07:52:21.442Z,0.80
2022-12-23T07:54:47.892Z,1.17
2022-12-23T07:57:15.543Z,1.10
2022-12-23T07:59:42.013Z,0.68
2022-12-23T08:02:10.825Z,0.60
2022-12-23T08:04:42.562Z,0.90
2022-12-23T08:07:12.224Z,0.80
2022-12-23T08:09:38.665Z,0.98
2022-12-23T08:12:05.320Z,0.90
2022-12-23T08:14:31.819Z,1.60
2022-12-23T08:16:58.336Z,1.15
2022-12-23T08:19:24.845Z,1.55
2022-12-23T08:21:51.421Z,1.85
2022-12-23T08:24:18.665Z,2.60
2022-12-23T08:26:48.697Z,1.50
2022-12-23T08:29:15.275Z,2.35
2022-12-23T08:31:41.741Z,1.83
2022-12-23T08:34:08.668Z,2.60
2022-12-23T08:36:35.835Z,3.95
2022-12-23T08:39:05.883Z,3.58
2022-12-23T08:41:36.378Z,3.50
2022-12-23T08:44:03.867Z,4.10
2022-12-23T08:46:32.498Z,2.42
2022-12-23T08:49:00.292Z,3.28
2022-12-23T08:51:27.810Z,3.47
2022-12-23T08:54:00.085Z,2.67
2022-12-23T08:56:32.315Z,4.00
2022-12-23T08:58:59.826Z,2.42
2022-12-23T09:01:28.834Z,1.80
2022-12-23T09:03:55.738Z,1.65
2022-12-23T09:06:34.507Z,1.30
2022-12-23T09:09:01.010Z,1.30
2022-12-23T09:11:28.843Z,0.93
2022-12-23T09:13:56.420Z,0.93
2022-12-23T09:16:23.353Z,0.50
2022-12-23T09:18:49.930Z,0.60
2022-12-23T09:21:19.671Z,0.90
2022-12-23T09:23:46.253Z,1.00
2022-12-23T09:26:19.203Z,0.70
2022-12-23T09:28:45.700Z,0.70
2022-12-23T09:31:13.228Z,0.85
2022-12-23T09:33:40.083Z,1.00
2022-12-23T09:36:06.904Z,0.90
2022-12-23T09:38:33.955Z,0.70
2022-12-23T09:41:09.547Z,1.10
2022-12-23T09:44:07.012Z,0.75
2022-12-23T09:46:38.622Z,0.60
2022-12-23T09:49:12.979Z,0.68
2022-12-23T09:51:42.751Z,0.70
2022-12-23T09:54:23.572Z,0.80
2022-12-23T09:57:15.098Z,1.00
2022-12-23T10:00:07.936Z,0.80
2022-12-23T10:02:53.683Z,0.70
2022-12-23T10:05:41.931Z,1.05
2022-12-23T10:08:26.551Z,0.80
2022-12-23T10:11:09.928Z,1.10
2022-12-23T10:13:42.481Z,1.52
2022-12-23T10:16:18.490Z,1.50
2022-12-23T10:18:50.404Z,2.05
2022-12-23T10:21:24.962Z,1.85
2022-12-23T10:23:53.742Z,1.48
2022-12-23T10:26:24.129Z,1.25
2022-12-23T10:28:55.920Z,1.27
2022-12-23T10:31:41.876Z,1.30
2022-12-23T10:34:21.121Z,1.23
2022-12-23T10:36:54.659Z,1.20
2022-12-23T10:39:37.264Z,1.83
2022-12-23T10:42:13.766Z,1.17
2022-12-23T10:45:04.593Z,1.40
2022-12-23T10:48:13.941Z,1.50
2022-12-23T10:51:14.977Z,1.52
2022-12-23T10:53:46.668Z,2.03
2022-12-23T10:56:13.674Z,1.42
2022-12-23T10:58:46.075Z,1.80
2022-12-23T11:01:24.141Z,1.40
2022-12-23T11:04:05.840Z,1.50
2022-12-23T11:06:37.530Z,1.50
2022-12-23T11:09:05.432Z,1.17
2022-12-23T11:12:08.754Z,1.20
2022-12-23T11:14:38.777Z,1.42
2022-12-23T11:17:09.466Z,1.42
2022-12-23T11:19:35.956Z,1.58
2022-12-23T11:22:03.095Z,1.87
2022-12-23T11:24:30.570Z,1.43
2022-12-23T11:27:05.183Z,1.80
2022-12-23T11:29:35.161Z,1.60
2022-12-23T11:32:18.547Z,1.88
2022-12-23T11:34:46.918Z,1.63
2022-12-23T11:37:43.616Z,2.30
2022-12-23T11:40:31.856Z,2.40
2022-12-23T11:43:01.684Z,3.70
2022-12-23T11:45:31.105Z,4.10
2022-12-23T11:47:57.602Z,4.25
2022-12-23T11:50:40.647Z,4.00
2022-12-23T11:53:20.657Z,4.50
2022-12-23T11:56:04.919Z,4.22
2022-12-23T11:58:36.756Z,5.15
2022-12-23T12:01:08.358Z,4.00
2022-12-23T12:04:04.019Z,5.43
2022-12-23T12:06:31.440Z,5.25
2022-12-23T12:09:02.040Z,4.88
2022-12-23T12:11:35.493Z,5.85
2022-12-23T12:14:06.631Z,5.75
2022-12-23T12:16:40.415Z,4.65
2022-12-23T12:19:15.705Z,5.43
2022-12-23T12:22:12.517Z,5.43
2022-12-23T12:25:15.372Z,5.20
2022-12-23T12:27:49.769Z,5.25
2022-12-23T12:30:19.364Z,5.78
2022-12-23T12:32:57.421Z,5.65
2022-12-23T12:35:42.811Z,4.68
2022-12-23T12:38:28.046Z,5.82
2022-12-23T12:41:08.417Z,7.00
2022-12-23T12:43:38.201Z,6.93
2022-12-23T12:46:23.640Z,6.22
2022-12-23T12:48:57.697Z,6.30
2022-12-23T12:51:42.466Z,4.80
2022-12-23T12:54:21.204Z,6.25
2022-12-23T12:56:53.324Z,5.05
2022-12-23T12:59:27.489Z,5.80
2022-12-23T13:02:09.290Z,4.75
2022-12-23T13:04:45.136Z,4.60
2022-12-23T13:07:32.316Z,4.25
2022-12-23T13:10:13.535Z,3.42
2022-12-23T13:13:04.436Z,2.40
2022-12-23T13:15:45.749Z,1.98
2022-12-23T13:18:49.577Z,2.60
2022-12-23T13:21:33.200Z,2.10
2022-12-23T13:24:04.395Z,2.08
2022-12-23T13:26:49.325Z,2.20
2022-12-23T13:29:30.042Z,2.05
2022-12-23T13:36:16.360Z,2.33
2022-12-23T13:39:01.610Z,1.92
2022-12-23T13:41:49.942Z,1.80
2022-12-23T13:44:16.745Z,1.70
2022-12-23T13:50:11.088Z,1.42
2022-12-23T13:53:16.638Z,1.92
2022-12-23T13:56:00.570Z,2.25
2022-12-23T14:02:01.904Z,1.90
2022-12-23T14:05:21.924Z,2.47
2022-12-23T14:12:05.890Z,2.40
2022-12-23T14:14:36.157Z,2.90
2022-12-23T14:17:09.001Z,3.13
2022-12-23T14:20:10.868Z,3.08
2022-12-23T14:23:11.899Z,3.00
2022-12-23T14:54:23.646Z,3.17
2022-12-23T14:57:08.250Z,3.30
2022-12-23T14:59:57.372Z,3.47
2022-12-23T15:02:35.763Z,3.58
2022-12-23T15:05:05.329Z,4.20
2022-12-23T15:11:46.026Z,3.75
2022-12-23T15:14:20.987Z,4.53
2022-12-23T15:16:47.760Z,4.85
2022-12-23T15:19:25.533Z,4.70
2022-12-23T15:25:00.907Z,4.22
2022-12-23T15:27:59.063Z,4.72
2022-12-23T15:30:31.172Z,4.50
2022-12-23T15:33:27.873Z,5.65
2022-12-23T15:35:54.271Z,4.85
2022-12-23T15:42:13.363Z,4.80
2022-12-23T15:44:39.852Z,5.40
2022-12-23T15:47:41.624Z,5.28
2022-12-23T15:53:53.782Z,5.65
2022-12-23T15:56:29.509Z,5.00
2022-12-23T15:59:24.053Z,6.43
2022-12-23T16:01:53.802Z,5.65
2022-12-23T16:04:27.384Z,5.80
2022-12-23T16:07:01.623Z,5.93
2022-12-23T16:10:04.045Z,8.20
2022-12-23T16:12:40.384Z,7.43
2022-12-23T16:15:41.969Z,7.10
2022-12-23T16:18:34.377Z,8.63
2022-12-23T16:21:34.947Z,7.72
2022-12-23T16:24:05.662Z,5.90
2022-12-23T16:26:32.230Z,8.70
2022-12-23T16:29:17.216Z,7.15
2022-12-23T16:34:59.089Z,7.25
2022-12-23T16:38:13.877Z,7.00
2022-12-23T16:41:00.031Z,7.18
2022-12-23T16:43:30.872Z,5.85
2022-12-23T17:27:22.936Z,7.75
2022-12-23T17:29:50.917Z,6.82
2022-12-23T17:32:18.305Z,7.43
2022-12-23T17:34:45.672Z,7.85
2022-12-23T17:37:43.355Z,8.02
2022-12-23T17:40:14.268Z,8.75
2022-12-23T17:42:47.093Z,5.90
2022-12-23T17:45:39.984Z,6.82
2022-12-23T17:48:06.837Z,7.72
2022-12-23T17:50:37.139Z,6.88
2022-12-23T17:53:06.821Z,7.30
2022-12-23T17:58:23.550Z,7.38
2022-12-23T18:00:53.073Z,7.15
2022-12-23T18:03:23.617Z,7.43
2022-12-23T18:05:54.239Z,8.30
2022-12-23T18:08:23.943Z,6.10
2022-12-23T18:10:50.504Z,3.67
2022-12-23T18:13:18.640Z,4.43
2022-12-23T18:15:45.480Z,4.50
2022-12-23T18:18:12.534Z,4.30
2022-12-23T18:20:40.842Z,4.07
2022-12-23T18:23:15.323Z,3.90
2022-12-23T18:25:42.049Z,4.80
2022-12-23T18:28:10.696Z,5.22
2022-12-23T18:30:37.496Z,5.25
2022-12-23T18:33:05.575Z,4.72
2022-12-23T18:35:39.252Z,5.00
2022-12-23T18:38:05.922Z,6.13
2022-12-23T18:40:33.195Z,5.25
2022-12-23T18:43:28.266Z,5.25
2022-12-23T18:46:14.977Z,5.60
2022-12-23T18:48:41.611Z,6.50
2022-12-23T18:51:12.875Z,6.45
2022-12-23T18:53:39.421Z,5.68
2022-12-23T18:56:13.051Z,5.32
2022-12-23T18:58:39.681Z,6.72
2022-12-23T19:01:06.300Z,5.15
2022-12-23T19:03:32.996Z,5.47
2022-12-23T19:05:59.759Z,5.15
2022-12-23T19:08:27.662Z,4.50
2022-12-23T19:10:55.535Z,4.15
2022-12-23T19:13:22.563Z,3.67
2022-12-23T19:15:49.299Z,3.30
2022-12-23T19:18:17.702Z,2.47
2022-12-23T19:20:47.303Z,3.45
2022-12-23T19:23:14.471Z,2.33
2022-12-23T19:25:52.639Z,2.35
2022-12-23T19:30:48.083Z,2.70
2022-12-23T19:33:14.651Z,2.50
2022-12-23T19:35:42.126Z,2.47
2022-12-23T19:38:08.952Z,2.35
2022-12-23T19:40:35.491Z,2.28
2022-12-23T19:43:02.768Z,2.30
2022-12-23T19:45:29.529Z,3.77
2022-12-23T19:47:56.007Z,3.03
2022-12-23T19:50:22.850Z,3.03
2022-12-23T19:52:52.020Z,4.00
2022-12-23T19:55:20.740Z,2.55
2022-12-23T19:57:47.205Z,3.00
2022-12-23T20:00:14.176Z,2.78
2022-12-23T20:02:40.699Z,2.60
2022-12-23T20:05:08.690Z,2.83
2022-12-23T20:07:36.088Z,2.50
2022-12-23T20:10:04.409Z,3.47
2022-12-23T20:12:30.932Z,2.15
2022-12-23T20:14:59.191Z,2.40
2022-12-23T20:17:25.751Z,2.30
2022-12-23T20:19:52.286Z,2.22
2022-12-23T20:22:19.305Z,2.40
2022-12-23T20:24:46.196Z,2.00
2022-12-23T20:27:15.625Z,1.90
2022-12-23T20:29:42.597Z,2.10
2022-12-23T20:32:09.144Z,1.90
2022-12-23T20:34:39.465Z,1.85
2022-12-23T20:37:06.867Z,2.45
2022-12-23T20:39:33.351Z,2.10
2022-12-23T20:41:59.889Z,2.10
2022-12-23T20:44:35.655Z,2.60
2022-12-23T20:47:04.099Z,2.33
2022-12-23T20:49:31.045Z,1.80
2022-12-23T20:51:57.687Z,2.10
2022-12-23T20:54:31.640Z,1.70
2022-12-23T20:56:59.669Z,2.50
2022-12-23T20:59:26.191Z,3.07
2022-12-23T21:01:52.821Z,2.00
2022-12-23T21:04:19.432Z,2.57
2022-12-23T21:06:45.922Z,2.80
2022-12-23T21:09:14.306Z,2.22
2022-12-23T21:11:42.791Z,2.65
2022-12-23T21:14:09.446Z,2.53
2022-12-23T21:16:37.348Z,2.92
2022-12-23T21:19:05.823Z,2.58
2022-12-23T21:21:35.850Z,2.28
2022-12-23T21:24:03.379Z,2.80
2022-12-23T21:26:31.647Z,2.60
2022-12-23T21:29:00.179Z,2.60
2022-12-23T21:31:28.414Z,2.60
2022-12-23T21:33:55.437Z,2.80
2022-12-23T21:36:24.334Z,3.30
2022-12-23T21:38:51.158Z,2.88
2022-12-23T21:41:23.614Z,5.78
2022-12-23T21:43:50.660Z,4.80
2022-12-23T21:46:21.674Z,3.13
2022-12-23T21:48:48.800Z,2.90
2022-12-23T21:51:23.397Z,3.10
2022-12-23T21:53:54.533Z,3.15
2022-12-23T21:56:25.059Z,2.70
2022-12-23T21:58:56.440Z,2.85
2022-12-23T22:01:23.678Z,2.90
2022-12-23T22:03:51.178Z,2.90
2022-12-23T22:06:20.094Z,2.63
2022-12-23T22:08:47.096Z,2.45
2022-12-23T22:11:16.729Z,2.53
2022-12-23T22:13:44.030Z,2.65
2022-12-23T22:16:12.312Z,2.70
2022-12-23T22:18:39.463Z,2.60
2022-12-23T22:21:14.820Z,2.93
2022-12-23T22:23:41.925Z,3.35
2022-12-23T22:26:09.921Z,3.17
2022-12-23T22:28:37.257Z,3.53
2022-12-23T22:31:05.897Z,3.35
2022-12-23T22:33:32.990Z,3.53
2022-12-23T22:36:00.592Z,3.28
2022-12-23T22:38:27.257Z,3.03
2022-12-23T22:40:54.900Z,3.67
2022-12-23T22:43:21.583Z,3.08
2022-12-23T22:45:55.847Z,3.00
2022-12-23T22:48:22.943Z,4.03
2022-12-23T22:50:49.640Z,3.15
2022-12-23T22:53:16.266Z,3.67
2022-12-23T22:55:43.235Z,3.13
2022-12-23T22:58:09.752Z,3.47
2022-12-23T23:00:38.633Z,3.97
2022-12-23T23:03:05.215Z,3.28
2022-12-23T23:05:31.714Z,3.38
2022-12-23T23:07:58.195Z,3.72
2022-12-23T23:10:24.662Z,2.92
2022-12-23T23:12:51.186Z,3.97
2022-12-23T23:15:17.807Z,4.13
2022-12-23T23:17:49.937Z,3.63
2022-12-23T23:20:16.939Z,3.47
2022-12-23T23:22:43.599Z,3.08
2022-12-23T23:34:02.729Z,3.33
2022-12-23T23:36:29.329Z,3.50
2022-12-23T23:38:55.889Z,3.58
2022-12-23T23:41:23.793Z,3.60
2022-12-23T23:43:51.316Z,3.97
2022-12-23T23:46:18.015Z,3.55
2022-12-23T23:48:44.653Z,3.40
2022-12-23T23:51:11.164Z,3.15
2022-12-23T23:53:37.802Z,3.35
2022-12-23T23:56:06.548Z,3.33
2022-12-23T23:58:34.426Z,3.40
